Nakhchivan — 9HHK8 — position and weather

sailwx.info

Track history (hours):
 
Tides and Currents Weather Stations Pressure Air Temp Water Temp Dewpoint Dewpoint Depression Visibility Wind Speed Wind Dir Waves Ship Positions

Nakhchivan

Last reported at 2015-Apr-09 20:22 UTC. Time now 2015-Apr-18 20:50 UTC.
Position N 40°09' E 019°21'.
Warning: this ship's position is 9 days out of date.

Length 139 m; draft 4.5 m.

Type: Cargo ship. MMSI: 215983000.

Date/timePositionNaut miles runAvg speedWind from/ knotsBaromVisibWave heightAir tempDewpointWater temp
2015-Apr-09 20:22N 40°09' E 019°21'6 7.9
2015-Apr-09 19:33N 40°05' E 019°28'8 8.4
2015-Apr-09 18:33N 40°00' E 019°37'8 8.4
2015-Apr-09 17:33N 39°55' E 019°46'8 7.9
2015-Apr-09 16:33N 39°51' E 019°54'6 6.2
2015-Apr-09 15:33N 39°45' E 019°58'8 7.9
2015-Apr-09 14:33N 39°37' E 019°59'9 8.8
2015-Apr-09 13:33N 39°30' E 020°05'9 8.8
2015-Apr-09 12:33N 39°22' E 020°11'  
2015-Apr-06 00:20N 40°58' E 028°55'3 2.4
2015-Apr-05 23:17N 40°59' E 028°58'  
2015-Apr-02 16:24N 46°35' E 031°28'7 8.0
2015-Apr-02 15:32N 46°35' E 031°38'9 8.7
2015-Apr-02 14:33N 46°35' E 031°50'11 9.1
2015-Apr-02 13:20N 46°32' E 032°06'  
Track history (hours):
 
Tides and Currents Weather Stations Pressure Air Temp Water Temp Dewpoint Dewpoint Depression Visibility Wind Speed Wind Dir Waves Ship Positions

Nakhchivan

Last reported at 2015-Apr-09 20:22 UTC. Time now 2015-Apr-18 20:50 UTC.
Position N 40°09' E 019°21'.
Warning: this ship's position is 9 days out of date.

Length 139 m; draft 4.5 m.

Type: Cargo ship. MMSI: 215983000.

Date/timePositionNaut miles runAvg speedWind from/ knotsBaromVisibWave heightAir tempDewpointWater temp
2015-Apr-09 20:22N 40°09' E 019°21'6 7.9
2015-Apr-09 19:33N 40°05' E 019°28'8 8.4
2015-Apr-09 18:33N 40°00' E 019°37'8 8.4
2015-Apr-09 17:33N 39°55' E 019°46'8 7.9
2015-Apr-09 16:33N 39°51' E 019°54'6 6.2
2015-Apr-09 15:33N 39°45' E 019°58'8 7.9
2015-Apr-09 14:33N 39°37' E 019°59'9 8.8
2015-Apr-09 13:33N 39°30' E 020°05'9 8.8
2015-Apr-09 12:33N 39°22' E 020°11'  
2015-Apr-06 00:20N 40°58' E 028°55'3 2.4
2015-Apr-05 23:17N 40°59' E 028°58'  
2015-Apr-02 16:24N 46°35' E 031°28'7 8.0
2015-Apr-02 15:32N 46°35' E 031°38'9 8.7
2015-Apr-02 14:33N 46°35' E 031°50'11 9.1
2015-Apr-02 13:20N 46°32' E 032°06'  

Dump ship's entire track history